createdAt,value
2018-08-08T00:00:11.511Z,2.10
2018-08-08T00:02:40.144Z,2.70
2018-08-08T00:05:08.787Z,2.30
2018-08-08T00:07:37.388Z,2.43
2018-08-08T00:10:06.288Z,2.17
2018-08-08T00:12:34.895Z,2.43
2018-08-08T00:15:03.596Z,1.77
2018-08-08T00:17:32.187Z,2.20
2018-08-08T00:20:00.755Z,2.37
2018-08-08T00:22:29.371Z,2.20
2018-08-08T00:24:57.955Z,2.33
2018-08-08T00:27:26.574Z,2.03
2018-08-08T00:29:55.262Z,1.97
2018-08-08T00:32:24.135Z,2.30
2018-08-08T00:34:52.983Z,2.13
2018-08-08T00:37:21.739Z,2.67
2018-08-08T00:39:50.305Z,3.07
2018-08-08T00:42:18.895Z,3.00
2018-08-08T00:44:47.435Z,3.03
2018-08-08T00:47:16.279Z,2.67
2018-08-08T00:49:45.141Z,2.83
2018-08-08T00:52:14.032Z,2.73
2018-08-08T00:54:42.727Z,3.10
2018-08-08T00:57:11.583Z,2.93
2018-08-08T00:59:40.447Z,3.27
2018-08-08T01:02:09.292Z,2.63
2018-08-08T01:04:38.100Z,3.17
2018-08-08T01:07:06.951Z,2.63
2018-08-08T01:09:35.816Z,2.70
2018-08-08T01:12:04.712Z,2.57
2018-08-08T01:14:33.626Z,2.63
2018-08-08T01:17:02.441Z,3.00
2018-08-08T01:19:31.403Z,2.70
2018-08-08T01:22:00.324Z,2.93
2018-08-08T01:24:29.224Z,2.20
2018-08-08T01:26:58.104Z,3.03
2018-08-08T01:29:26.911Z,2.97
2018-08-08T01:31:55.863Z,2.93
2018-08-08T01:34:24.432Z,2.93
2018-08-08T01:36:53.040Z,2.67
2018-08-08T01:39:21.672Z,3.17
2018-08-08T01:41:50.284Z,3.17
2018-08-08T01:44:18.868Z,3.00
2018-08-08T01:46:47.491Z,3.17
2018-08-08T01:49:16.104Z,3.30
2018-08-08T01:51:44.765Z,3.00
2018-08-08T01:54:13.336Z,2.93
2018-08-08T01:56:42.032Z,3.20
2018-08-08T01:59:10.663Z,2.83
2018-08-08T02:01:39.268Z,3.10
2018-08-08T02:04:07.884Z,3.17
2018-08-08T02:06:36.499Z,3.30
2018-08-08T02:09:06.769Z,3.03
2018-08-08T02:11:35.829Z,3.10
2018-08-08T02:14:04.908Z,3.43
2018-08-08T02:16:33.819Z,3.50
2018-08-08T02:19:02.766Z,3.33
2018-08-08T02:21:31.632Z,4.90
2018-08-08T02:24:00.521Z,5.83
2018-08-08T02:26:29.338Z,6.30
2018-08-08T02:28:58.125Z,6.40
2018-08-08T02:31:26.976Z,6.37
2018-08-08T02:33:55.867Z,6.20
2018-08-08T02:36:24.688Z,6.23
2018-08-08T02:38:53.589Z,6.10
2018-08-08T02:41:22.377Z,6.03
2018-08-08T02:43:51.337Z,6.13
2018-08-08T02:46:20.272Z,6.03
2018-08-08T02:48:49.249Z,6.90
2018-08-08T02:51:18.016Z,6.93
2018-08-08T02:53:46.927Z,6.93
2018-08-08T02:56:15.715Z,7.20
2018-08-08T02:58:44.550Z,7.33
2018-08-08T03:01:13.333Z,6.63
2018-08-08T03:03:42.315Z,6.97
2018-08-08T03:06:11.058Z,6.40
2018-08-08T03:08:39.955Z,6.47
2018-08-08T03:11:09.575Z,7.20
2018-08-08T03:13:38.179Z,7.67
2018-08-08T03:16:06.771Z,6.93
2018-08-08T03:18:35.388Z,6.90
2018-08-08T03:21:04.191Z,7.00
2018-08-08T03:23:33.061Z,6.33
2018-08-08T03:26:02.584Z,6.20
2018-08-08T03:28:31.370Z,6.40
2018-08-08T03:31:00.052Z,6.03
2018-08-08T03:33:28.939Z,6.33
2018-08-08T03:35:57.752Z,6.33
2018-08-08T03:38:26.478Z,6.37
2018-08-08T03:40:55.220Z,6.27
2018-08-08T03:43:23.871Z,5.77
2018-08-08T03:45:52.488Z,5.73
2018-08-08T03:48:21.142Z,5.67
2018-08-08T03:50:49.729Z,4.87
2018-08-08T03:53:18.393Z,5.30
2018-08-08T03:55:46.971Z,4.80
2018-08-08T03:58:15.617Z,4.40
2018-08-08T04:00:44.199Z,4.30
2018-08-08T04:03:12.832Z,4.13
2018-08-08T04:05:41.447Z,4.47
2018-08-08T04:08:10.156Z,3.73
2018-08-08T04:10:39.007Z,4.50
2018-08-08T04:13:07.873Z,4.17
2018-08-08T04:15:36.648Z,3.73
2018-08-08T04:18:06.368Z,3.70
2018-08-08T04:20:35.360Z,3.87
2018-08-08T04:23:04.208Z,3.83
2018-08-08T04:25:33.012Z,3.97
2018-08-08T04:28:01.861Z,3.43
2018-08-08T04:30:30.812Z,3.40
2018-08-08T04:32:59.519Z,4.10
2018-08-08T04:35:28.363Z,4.00
2018-08-08T04:37:57.173Z,4.10
2018-08-08T04:40:26.085Z,4.07
2018-08-08T04:42:55.039Z,4.37
2018-08-08T04:45:23.893Z,3.93
2018-08-08T04:47:52.804Z,4.20
2018-08-08T04:50:21.615Z,3.63
2018-08-08T04:52:50.437Z,4.13
2018-08-08T04:55:19.267Z,4.00
2018-08-08T04:57:48.123Z,3.80
2018-08-08T05:00:17.932Z,3.57
2018-08-08T05:02:46.964Z,6.03
2018-08-08T05:05:16.109Z,4.13
2018-08-08T05:07:45.009Z,3.90
2018-08-08T05:10:13.896Z,4.53
2018-08-08T05:12:42.876Z,4.23
2018-08-08T05:15:14.440Z,3.83
2018-08-08T05:17:43.399Z,3.80
2018-08-08T05:20:13.152Z,4.20
2018-08-08T05:22:41.759Z,3.97
2018-08-08T05:25:10.384Z,3.70
2018-08-08T05:27:38.980Z,4.00
2018-08-08T05:30:19.482Z,3.90
2018-08-08T05:32:48.694Z,4.67
2018-08-08T05:35:19.120Z,4.50
2018-08-08T05:37:48.016Z,3.90
2018-08-08T05:40:20.037Z,4.20
2018-08-08T05:42:49.748Z,4.33
2018-08-08T05:45:18.405Z,4.30
2018-08-08T05:47:48.154Z,4.07
2018-08-08T05:50:16.795Z,5.90
2018-08-08T05:52:45.400Z,5.03
2018-08-08T05:55:15.425Z,3.60
2018-08-08T05:57:44.884Z,4.60
2018-08-08T06:00:20.728Z,4.40
2018-08-08T06:02:49.628Z,4.90
2018-08-08T06:05:18.459Z,5.57
2018-08-08T06:07:47.229Z,4.70
2018-08-08T06:10:16.095Z,4.10
2018-08-08T06:12:45.021Z,4.17
2018-08-08T06:15:14.740Z,4.10
2018-08-08T06:17:43.452Z,3.90
2018-08-08T06:20:14.660Z,3.40
2018-08-08T06:22:44.387Z,3.10
2018-08-08T06:25:13.170Z,3.93
2018-08-08T06:27:42.465Z,4.03
2018-08-08T06:30:17.292Z,3.60
2018-08-08T06:32:46.199Z,3.83
2018-08-08T06:35:16.192Z,4.30
2018-08-08T06:37:44.896Z,3.60
2018-08-08T06:40:14.464Z,3.60
2018-08-08T06:42:43.832Z,4.47
2018-08-08T06:45:14.065Z,3.37
2018-08-08T06:47:43.056Z,3.97
2018-08-08T06:50:13.238Z,3.20
2018-08-08T06:52:42.035Z,3.77
2018-08-08T06:55:12.590Z,3.47
2018-08-08T06:57:41.645Z,3.40
2018-08-08T07:00:16.236Z,4.70
2018-08-08T07:02:45.369Z,3.93
2018-08-08T07:05:15.161Z,4.00
2018-08-08T07:07:43.813Z,3.80
2018-08-08T07:10:12.380Z,4.03
2018-08-08T07:12:40.986Z,4.30
2018-08-08T07:15:11.947Z,3.97
2018-08-08T07:17:40.729Z,4.37
2018-08-08T07:20:10.778Z,4.43
2018-08-08T07:22:39.452Z,3.93
2018-08-08T07:25:10.271Z,3.97
2018-08-08T07:27:38.981Z,4.23
2018-08-08T07:30:10.773Z,4.57
2018-08-08T07:32:39.741Z,4.50
2018-08-08T07:35:09.112Z,4.80
2018-08-08T07:37:37.949Z,4.37
2018-08-08T07:40:09.582Z,5.00
2018-08-08T07:42:38.688Z,4.00
2018-08-08T07:45:09.270Z,4.63
2018-08-08T07:47:37.897Z,4.23
2018-08-08T07:50:07.703Z,4.43
2018-08-08T07:52:36.350Z,4.60
2018-08-08T07:55:05.816Z,4.20
2018-08-08T07:57:34.721Z,4.43
2018-08-08T08:00:04.368Z,4.20
2018-08-08T08:02:32.961Z,4.17
2018-08-08T08:05:01.644Z,3.93
2018-08-08T08:07:30.236Z,4.33
2018-08-08T08:09:58.923Z,3.90
2018-08-08T08:12:27.507Z,3.93
2018-08-08T08:14:56.060Z,4.20
2018-08-08T08:17:24.691Z,3.87
2018-08-08T08:19:53.215Z,4.53
2018-08-08T08:22:28.283Z,4.30
2018-08-08T08:24:57.038Z,4.07
2018-08-08T08:27:25.981Z,3.80
2018-08-08T08:29:54.614Z,4.67
2018-08-08T08:32:23.132Z,4.30
2018-08-08T08:34:51.715Z,4.43
2018-08-08T08:37:20.408Z,4.03
2018-08-08T08:39:48.990Z,4.67
2018-08-08T08:42:17.588Z,4.23
2018-08-08T08:44:46.293Z,4.23
2018-08-08T08:47:14.863Z,4.93
2018-08-08T08:49:43.433Z,4.67
2018-08-08T08:52:12.017Z,4.23
2018-08-08T08:54:40.588Z,4.73
2018-08-08T08:57:09.138Z,4.33
2018-08-08T08:59:37.700Z,4.80
2018-08-08T09:02:06.305Z,4.57
2018-08-08T09:04:34.915Z,4.57
2018-08-08T09:07:03.458Z,4.53
2018-08-08T09:09:32.076Z,4.80
2018-08-08T09:12:00.664Z,5.37
2018-08-08T09:14:29.232Z,5.90
2018-08-08T09:16:57.845Z,5.37
2018-08-08T09:19:26.447Z,5.53
2018-08-08T09:21:55.050Z,5.57
2018-08-08T09:24:23.676Z,6.13
2018-08-08T09:26:52.245Z,5.47
2018-08-08T09:29:20.875Z,5.53
2018-08-08T09:31:49.416Z,6.13
2018-08-08T09:34:18.203Z,5.90
2018-08-08T09:36:46.989Z,5.60
2018-08-08T09:39:15.890Z,5.10
2018-08-08T09:41:44.595Z,5.50
2018-08-08T09:44:13.389Z,5.37
2018-08-08T09:46:42.247Z,5.70
2018-08-08T09:49:11.016Z,5.57
2018-08-08T09:51:39.829Z,5.97
2018-08-08T09:54:08.719Z,5.87
2018-08-08T09:56:37.608Z,6.07
2018-08-08T09:59:14.534Z,5.60
2018-08-08T10:01:49.127Z,6.30
2018-08-08T10:04:23.169Z,5.37
2018-08-08T10:06:51.981Z,5.83
2018-08-08T10:09:20.604Z,5.40
2018-08-08T10:11:49.448Z,5.53
2018-08-08T10:14:17.971Z,4.97
2018-08-08T10:16:46.554Z,5.20
2018-08-08T10:19:15.401Z,5.50
2018-08-08T10:21:44.364Z,5.77
2018-08-08T10:24:13.434Z,5.53
2018-08-08T10:26:42.190Z,5.47
2018-08-08T10:29:10.755Z,5.00
2018-08-08T10:31:39.385Z,5.13
2018-08-08T10:34:07.952Z,5.00
2018-08-08T10:36:36.585Z,4.73
2018-08-08T10:39:08.196Z,5.37
2018-08-08T10:41:36.865Z,5.47
2018-08-08T10:44:05.997Z,5.07
2018-08-08T10:46:34.645Z,4.67
2018-08-08T10:49:03.196Z,4.57
2018-08-08T10:51:31.928Z,5.57
2018-08-08T10:54:00.475Z,5.17
2018-08-08T10:56:29.687Z,5.13
2018-08-08T10:58:58.412Z,5.00
2018-08-08T11:01:27.436Z,5.67
2018-08-08T11:03:56.074Z,5.30
2018-08-08T11:06:25.668Z,5.07
2018-08-08T11:08:54.498Z,5.37
2018-08-08T11:11:23.354Z,5.10
2018-08-08T11:13:52.108Z,4.70
2018-08-08T11:16:21.257Z,5.73
2018-08-08T11:18:50.056Z,5.40
2018-08-08T11:21:18.912Z,4.77
2018-08-08T11:23:47.735Z,4.33
2018-08-08T11:26:16.320Z,5.70
2018-08-08T11:28:44.924Z,5.07
2018-08-08T11:31:13.519Z,5.17
2018-08-08T11:33:42.056Z,5.10
2018-08-08T11:36:10.661Z,4.73
2018-08-08T11:38:39.221Z,4.73
2018-08-08T11:41:07.804Z,5.30
2018-08-08T11:43:36.406Z,4.97
2018-08-08T11:46:05.125Z,5.30
2018-08-08T11:48:33.730Z,4.90
2018-08-08T11:51:02.311Z,4.50
2018-08-08T11:53:30.952Z,5.10
2018-08-08T11:55:59.744Z,4.77
2018-08-08T11:58:28.382Z,4.60
2018-08-08T12:00:56.980Z,4.77
2018-08-08T12:03:25.574Z,4.30
2018-08-08T12:05:54.127Z,4.60
2018-08-08T12:08:22.696Z,4.60
2018-08-08T12:10:51.206Z,4.53
2018-08-08T12:13:19.812Z,5.10
2018-08-08T12:15:48.381Z,5.10
2018-08-08T12:18:16.957Z,4.53
2018-08-08T12:20:45.519Z,4.47
2018-08-08T12:23:14.106Z,4.30
2018-08-08T12:25:42.718Z,4.10
2018-08-08T12:28:11.289Z,4.70
2018-08-08T12:30:39.903Z,3.87
2018-08-08T12:33:08.503Z,4.10
2018-08-08T12:35:37.094Z,3.70
2018-08-08T12:38:05.727Z,4.40
2018-08-08T12:40:34.291Z,4.47
2018-08-08T12:43:02.908Z,4.20
2018-08-08T12:45:31.444Z,3.90
2018-08-08T12:48:00.035Z,4.23
2018-08-08T12:50:28.698Z,3.73
2018-08-08T12:52:57.329Z,4.30
2018-08-08T12:55:25.907Z,4.50
2018-08-08T12:57:54.512Z,3.90
2018-08-08T13:00:23.072Z,4.20
2018-08-08T13:02:51.654Z,4.20
2018-08-08T13:05:20.259Z,4.00
2018-08-08T13:07:49.183Z,3.93
2018-08-08T13:10:17.969Z,4.80
2018-08-08T13:12:46.885Z,4.50
2018-08-08T13:15:15.688Z,4.03
2018-08-08T13:17:44.629Z,4.60
2018-08-08T13:20:13.384Z,4.10
2018-08-08T13:22:42.285Z,4.43
2018-08-08T13:25:11.121Z,4.17
2018-08-08T13:27:40.076Z,4.50
2018-08-08T13:30:08.852Z,4.20
2018-08-08T13:32:37.761Z,4.70
2018-08-08T13:35:07.034Z,4.10
2018-08-08T13:37:35.837Z,4.30
2018-08-08T13:40:05.613Z,4.30
2018-08-08T13:42:34.470Z,4.27
2018-08-08T13:45:03.249Z,4.33
2018-08-08T13:47:32.074Z,4.50
2018-08-08T13:50:00.964Z,4.33
2018-08-08T13:52:29.731Z,4.40
2018-08-08T13:54:58.696Z,4.93
2018-08-08T13:57:27.667Z,4.50
2018-08-08T13:59:56.529Z,4.07
2018-08-08T14:02:25.349Z,4.70
2018-08-08T14:04:54.198Z,4.07
2018-08-08T14:07:23.137Z,4.10
2018-08-08T14:09:52.024Z,4.60
2018-08-08T14:12:20.853Z,4.67
2018-08-08T14:14:49.765Z,5.00
2018-08-08T14:17:18.628Z,4.67
2018-08-08T14:19:47.473Z,4.60
2018-08-08T14:22:16.195Z,4.50
2018-08-08T14:24:44.922Z,4.50
2018-08-08T14:27:13.884Z,4.00
2018-08-08T14:29:42.792Z,4.67
2018-08-08T14:32:11.667Z,4.67
2018-08-08T14:34:40.523Z,5.13
2018-08-08T14:37:09.449Z,4.03
2018-08-08T14:39:38.411Z,4.43
2018-08-08T14:42:07.284Z,4.47
2018-08-08T14:44:36.086Z,4.30
2018-08-08T14:47:05.016Z,4.70
2018-08-08T14:49:33.952Z,4.37
2018-08-08T14:52:02.851Z,4.60
2018-08-08T14:54:31.661Z,4.40
2018-08-08T14:57:00.476Z,3.83
2018-08-08T14:59:29.420Z,4.37
2018-08-08T15:01:58.213Z,4.23
2018-08-08T15:04:27.043Z,4.57
2018-08-08T15:06:56.009Z,4.60
2018-08-08T15:09:24.828Z,4.47
2018-08-08T15:11:53.686Z,4.57
2018-08-08T15:14:22.529Z,4.20
2018-08-08T15:16:51.408Z,4.40
2018-08-08T15:19:20.249Z,4.20
2018-08-08T15:21:48.815Z,4.37
2018-08-08T15:24:17.418Z,4.20
2018-08-08T15:26:46.013Z,4.07
2018-08-08T15:29:14.659Z,5.03
2018-08-08T15:31:43.275Z,3.90
2018-08-08T15:34:11.930Z,4.10
2018-08-08T15:36:40.776Z,4.07
2018-08-08T15:39:09.852Z,4.20
2018-08-08T15:41:38.533Z,4.00
2018-08-08T15:44:07.159Z,4.17
2018-08-08T15:46:35.809Z,4.53
2018-08-08T15:49:04.450Z,4.77
2018-08-08T15:51:33.152Z,4.53
2018-08-08T15:54:01.732Z,4.60
2018-08-08T15:56:30.561Z,4.57
2018-08-08T15:58:59.462Z,4.13
2018-08-08T16:01:28.472Z,4.10
2018-08-08T16:03:57.392Z,4.67
2018-08-08T16:06:26.191Z,4.57
2018-08-08T16:08:54.737Z,4.60
2018-08-08T16:11:23.323Z,4.80
2018-08-08T16:13:51.946Z,4.83
2018-08-08T16:16:20.548Z,4.70
2018-08-08T16:18:49.110Z,4.60
2018-08-08T16:21:17.836Z,4.70
2018-08-08T16:23:46.396Z,4.53
2018-08-08T16:26:14.956Z,4.67
2018-08-08T16:28:43.597Z,4.70
2018-08-08T16:31:12.199Z,5.10
2018-08-08T16:33:40.764Z,4.63
2018-08-08T16:36:09.352Z,4.50
2018-08-08T16:38:37.916Z,4.13
2018-08-08T16:41:07.040Z,4.20
2018-08-08T16:43:35.632Z,4.60
2018-08-08T16:46:04.315Z,4.43
2018-08-08T16:48:32.898Z,4.63
2018-08-08T16:51:01.524Z,4.40
2018-08-08T16:53:30.189Z,4.40
2018-08-08T16:55:58.900Z,4.17
2018-08-08T16:58:27.436Z,4.43
2018-08-08T17:00:56.020Z,4.87
2018-08-08T17:03:24.638Z,4.13
2018-08-08T17:05:53.195Z,4.33
2018-08-08T17:08:21.798Z,4.50
2018-08-08T17:10:50.412Z,4.50
2018-08-08T17:13:18.988Z,4.20
2018-08-08T17:15:47.605Z,4.30
2018-08-08T17:18:16.175Z,4.13
2018-08-08T17:20:44.734Z,4.07
2018-08-08T17:23:13.397Z,5.07
2018-08-08T17:25:41.948Z,4.80
2018-08-08T17:28:10.546Z,4.40
2018-08-08T17:30:39.384Z,4.53
2018-08-08T17:33:08.379Z,4.00
2018-08-08T17:35:37.298Z,4.63
2018-08-08T17:38:06.250Z,4.27
2018-08-08T17:40:35.183Z,4.90
2018-08-08T17:43:04.220Z,4.60
2018-08-08T17:45:33.072Z,4.47
2018-08-08T17:48:01.900Z,4.63
2018-08-08T17:50:30.800Z,4.57
2018-08-08T17:52:59.724Z,4.13
2018-08-08T17:55:28.507Z,5.17
2018-08-08T17:57:57.366Z,4.13
2018-08-08T18:00:26.252Z,4.40
2018-08-08T18:02:55.272Z,4.13
2018-08-08T18:05:24.125Z,4.37
2018-08-08T18:07:53.099Z,10.87
2018-08-08T18:10:22.021Z,5.30
2018-08-08T18:12:50.759Z,4.43
2018-08-08T18:15:19.546Z,4.63
2018-08-08T18:17:48.151Z,4.70
2018-08-08T18:20:16.716Z,4.27
2018-08-08T18:22:45.347Z,4.13
2018-08-08T18:25:13.980Z,4.30
2018-08-08T18:27:42.638Z,4.33
2018-08-08T18:30:11.551Z,5.10
2018-08-08T18:32:40.197Z,4.20
2018-08-08T18:35:08.842Z,4.60
2018-08-08T18:37:37.520Z,4.60
2018-08-08T18:40:06.129Z,4.70
2018-08-08T18:42:34.738Z,5.60
2018-08-08T18:45:03.388Z,5.20
2018-08-08T18:47:32.005Z,5.17
2018-08-08T18:50:00.597Z,4.70
2018-08-08T18:52:29.970Z,5.27
2018-08-08T18:54:58.511Z,5.33
2018-08-08T18:57:27.119Z,5.00
2018-08-08T18:59:55.703Z,6.70
2018-08-08T19:02:24.408Z,6.57
2018-08-08T19:04:52.976Z,5.10
2018-08-08T19:07:21.551Z,5.63
2018-08-08T19:09:50.166Z,5.07
2018-08-08T19:12:18.722Z,5.53
2018-08-08T19:14:47.291Z,5.23
2018-08-08T19:17:15.851Z,5.90
2018-08-08T19:19:44.689Z,5.40
2018-08-08T19:22:13.239Z,5.53
2018-08-08T19:24:41.816Z,5.57
2018-08-08T19:27:10.604Z,5.43
2018-08-08T19:29:39.408Z,5.27
2018-08-08T19:32:08.203Z,5.37
2018-08-08T19:34:36.918Z,7.27
2018-08-08T19:37:06.129Z,6.63
2018-08-08T19:39:34.729Z,5.63
2018-08-08T19:42:03.310Z,5.90
2018-08-08T19:44:31.956Z,8.07
2018-08-08T19:47:00.551Z,11.70
2018-08-08T19:49:29.162Z,10.73
2018-08-08T19:51:57.716Z,5.83
2018-08-08T19:54:26.368Z,5.50
2018-08-08T19:56:54.924Z,5.70
2018-08-08T19:59:23.519Z,6.03
2018-08-08T20:01:52.143Z,5.47
2018-08-08T20:04:20.716Z,5.70
2018-08-08T20:06:49.291Z,5.90
2018-08-08T20:09:17.878Z,5.67
2018-08-08T20:11:46.431Z,5.90
2018-08-08T20:14:14.994Z,5.73
2018-08-08T20:16:43.529Z,5.60
2018-08-08T20:19:12.232Z,6.20
2018-08-08T20:21:40.784Z,10.83
2018-08-08T20:24:09.575Z,7.80
2018-08-08T20:26:38.116Z,5.77
2018-08-08T20:29:06.776Z,5.63
2018-08-08T20:31:35.344Z,5.57
2018-08-08T20:34:03.945Z,5.40
2018-08-08T20:36:32.523Z,5.87
2018-08-08T20:39:01.119Z,5.37
2018-08-08T20:41:29.710Z,5.97
2018-08-08T20:43:58.345Z,5.50
2018-08-08T20:46:26.921Z,5.30
2018-08-08T20:48:55.533Z,5.27
2018-08-08T20:51:24.097Z,5.80
2018-08-08T20:53:52.690Z,5.70
2018-08-08T20:56:21.340Z,5.63
2018-08-08T20:58:50.176Z,5.67
2018-08-08T21:01:19.047Z,5.67
2018-08-08T21:03:47.881Z,5.73
2018-08-08T21:06:16.820Z,5.97
2018-08-08T21:08:45.619Z,5.13
2018-08-08T21:11:14.432Z,6.20
2018-08-08T21:13:43.307Z,5.57
2018-08-08T21:16:12.245Z,6.07
2018-08-08T21:18:41.126Z,5.13
2018-08-08T21:21:10.273Z,5.37
2018-08-08T21:23:38.836Z,5.73
2018-08-08T21:26:07.421Z,5.37
2018-08-08T21:28:36.076Z,5.57
2018-08-08T21:31:04.668Z,5.33
2018-08-08T21:33:33.352Z,5.60
2018-08-08T21:36:02.255Z,5.53
2018-08-08T21:38:31.060Z,5.67
2018-08-08T21:40:59.903Z,6.20
2018-08-08T21:43:28.796Z,5.87
2018-08-08T21:45:57.680Z,6.33
2018-08-08T21:48:26.301Z,6.33
2018-08-08T21:50:54.912Z,6.17
2018-08-08T21:53:34.713Z,5.37
2018-08-08T21:57:15.212Z,6.10
2018-08-08T21:59:54.992Z,6.20
2018-08-08T22:02:35.422Z,5.70
2018-08-08T22:05:15.485Z,6.37
2018-08-08T22:08:55.222Z,6.13
2018-08-08T22:11:35.065Z,6.13
2018-08-08T22:14:14.971Z,5.80
2018-08-08T22:16:54.725Z,5.73
2018-08-08T22:19:34.656Z,6.23
2018-08-08T22:22:03.327Z,5.77
2018-08-08T22:24:34.687Z,6.27
2018-08-08T22:27:03.324Z,6.23
2018-08-08T22:29:31.908Z,5.70
2018-08-08T22:32:00.526Z,6.07
2018-08-08T22:34:29.090Z,6.13
2018-08-08T22:36:57.661Z,7.30
2018-08-08T22:39:26.274Z,5.77
2018-08-08T22:41:54.888Z,6.43
2018-08-08T22:44:23.424Z,5.60
2018-08-08T22:46:52.016Z,5.97
2018-08-08T22:49:20.581Z,6.07
2018-08-08T22:51:49.187Z,5.97
2018-08-08T22:54:17.715Z,6.73
2018-08-08T22:56:46.283Z,6.23
2018-08-08T22:59:14.810Z,6.10
2018-08-08T23:01:43.372Z,6.23
2018-08-08T23:04:11.980Z,6.23
2018-08-08T23:06:40.569Z,5.97
2018-08-08T23:09:10.076Z,6.07
2018-08-08T23:11:38.700Z,6.20
2018-08-08T23:14:07.724Z,6.73
2018-08-08T23:16:36.433Z,6.07
2018-08-08T23:19:05.021Z,7.07
2018-08-08T23:21:33.621Z,6.17
2018-08-08T23:24:02.208Z,6.10
2018-08-08T23:26:30.792Z,6.17
2018-08-08T23:28:59.380Z,5.93
2018-08-08T23:31:28.033Z,6.47
2018-08-08T23:33:56.577Z,6.33
2018-08-08T23:36:25.115Z,6.10
2018-08-08T23:38:53.692Z,7.13
2018-08-08T23:41:22.241Z,6.50
2018-08-08T23:43:50.856Z,6.77
2018-08-08T23:46:19.375Z,6.13
2018-08-08T23:48:47.966Z,6.40
2018-08-08T23:51:16.531Z,6.20
2018-08-08T23:53:45.111Z,6.73
2018-08-08T23:56:13.649Z,6.43
2018-08-08T23:58:42.218Z,6.10
